Etusivu
METAR-TAF:

METAR-TAF

Lentoasemat :

Trapani, Italia

Leveyspiiri: 37-55N, Pituuspiiri: 012-30E, korkeus merenpinnasta: 7 m

Tämänhetkinen sää

Tämä raportti tehtiin 48 minuuttia sitten, kello 16.55 UTC
Tuuli 8 kn pohjoisen/luoteesta
Lämpötila 26°C
Kosteus 74%
Ilmanpaine 1017 hPa
Näkyvyys 10 km tai enemmän
ei pilviä alle 1500 m:ssä eikä cumulonimbus-pilviä

METAR: LICT 181655Z 34008KT CAVOK 26/21 Q1017 RMK SCT FEW070 SCT200 VIS MIN 9999 WIND THR13 36006KT BLU

Aika: 19:43 (17:43 UTC)

Sääennuste

Tämä raportti tehtiin 43 minuuttia sitten, kello 17.00 UTC
Ennuste voimassa 18. päivästä klo 18 UTC - 19. päivään klo 03 UTC
Tuuli 10 kn etelästä/lounaasta
Näkyvyys 10 km tai enemmän
ei pilviä alle 1500 m:ssä eikä cumulonimbus-pilviä

TAF: LICT 181700Z 1818/1903 20010KT CAVOK

Säähavainnot ja -ennusteet yli 4000 lentoasemalta (METAR- ja TAF-raportit).

Käytössä olevat sääasemat on merkitty karttaan keltaisilla ja punaisilla pisteillä.

Aseta hiiri pisteen päälle nähdäksesi sääaseman nimen.

Klikkaa sitten nähdäksesi säähavainnot ja -ennusteet.

Kartan vaihtaminen: klikkaa mustalla rastilla varustettuja vihreitä pisteitä, niin voit zoomata sisään; viivalla varustettua vihreää pistettä, niin voit zoomata ulos tai vihreitä nuolia, niin pääset viereisille kartoille.


METAR-TAF: